sensor_id;sensor_type;location;lat;lon;timestamp;P1;durP1;ratioP1;P2;durP2;ratioP2
55811;SDS011;41742;52.048;6.092;2022-07-05T00:00:14;0.47;;;0.43;;
55811;SDS011;41742;52.048;6.092;2022-07-05T00:02:41;0.55;;;0.45;;
55811;SDS011;41742;52.048;6.092;2022-07-05T00:05:07;1.75;;;0.40;;
55811;SDS011;41742;52.048;6.092;2022-07-05T00:07:32;1.65;;;0.60;;
55811;SDS011;41742;52.048;6.092;2022-07-05T00:09:58;0.43;;;0.40;;
55811;SDS011;41742;52.048;6.092;2022-07-05T00:12:25;1.65;;;0.32;;
55811;SDS011;41742;52.048;6.092;2022-07-05T00:14:53;0.70;;;0.40;;
55811;SDS011;41742;52.048;6.092;2022-07-05T00:17:19;2.17;;;0.50;;
55811;SDS011;41742;52.048;6.092;2022-07-05T00:19:45;1.90;;;0.63;;
55811;SDS011;41742;52.048;6.092;2022-07-05T00:22:12;1.17;;;0.50;;
55811;SDS011;41742;52.048;6.092;2022-07-05T00:24:37;2.25;;;0.45;;
55811;SDS011;41742;52.048;6.092;2022-07-05T00:27:03;3.58;;;0.43;;
55811;SDS011;41742;52.048;6.092;2022-07-05T00:29:29;1.40;;;0.50;;
55811;SDS011;41742;52.048;6.092;2022-07-05T00:31:56;1.98;;;0.32;;
55811;SDS011;41742;52.048;6.092;2022-07-05T00:34:22;0.70;;;0.50;;
55811;SDS011;41742;52.048;6.092;2022-07-05T00:36:47;2.05;;;0.50;;
55811;SDS011;41742;52.048;6.092;2022-07-05T00:39:13;0.30;;;0.30;;
55811;SDS011;41742;52.048;6.092;2022-07-05T00:41:39;0.30;;;0.30;;
55811;SDS011;41742;52.048;6.092;2022-07-05T00:44:06;0.80;;;0.45;;
55811;SDS011;41742;52.048;6.092;2022-07-05T00:46:33;0.85;;;0.50;;
55811;SDS011;41742;52.048;6.092;2022-07-05T00:49:00;0.88;;;0.60;;
55811;SDS011;41742;52.048;6.092;2022-07-05T00:51:29;0.90;;;0.50;;
55811;SDS011;41742;52.048;6.092;2022-07-05T00:53:56;2.20;;;0.68;;
55811;SDS011;41742;52.048;6.092;2022-07-05T00:56:23;1.92;;;0.77;;
55811;SDS011;41742;52.048;6.092;2022-07-05T00:58:50;0.70;;;0.55;;
55811;SDS011;41742;52.048;6.092;2022-07-05T01:01:16;1.02;;;0.70;;
55811;SDS011;41742;52.048;6.092;2022-07-05T01:03:42;1.20;;;0.80;;
55811;SDS011;41742;52.048;6.092;2022-07-05T01:06:09;1.33;;;1.13;;
55811;SDS011;41742;52.048;6.092;2022-07-05T01:08:38;3.75;;;1.00;;
55811;SDS011;41742;52.048;6.092;2022-07-05T01:11:06;0.95;;;0.63;;
55811;SDS011;41742;52.048;6.092;2022-07-05T01:13:33;1.42;;;0.63;;
55811;SDS011;41742;52.048;6.092;2022-07-05T01:15:59;1.58;;;0.40;;
55811;SDS011;41742;52.048;6.092;2022-07-05T01:18:24;1.08;;;0.55;;
55811;SDS011;41742;52.048;6.092;2022-07-05T01:20:50;0.28;;;0.28;;
55811;SDS011;41742;52.048;6.092;2022-07-05T01:23:17;2.08;;;0.60;;
55811;SDS011;41742;52.048;6.092;2022-07-05T01:25:43;0.93;;;0.70;;
55811;SDS011;41742;52.048;6.092;2022-07-05T01:28:11;0.90;;;0.45;;
55811;SDS011;41742;52.048;6.092;2022-07-05T01:30:36;0.68;;;0.35;;
55811;SDS011;41742;52.048;6.092;2022-07-05T01:33:05;1.35;;;0.52;;
55811;SDS011;41742;52.048;6.092;2022-07-05T01:35:31;3.70;;;0.45;;
55811;SDS011;41742;52.048;6.092;2022-07-05T01:37:58;1.25;;;0.30;;
55811;SDS011;41742;52.048;6.092;2022-07-05T01:40:24;0.30;;;0.30;;
55811;SDS011;41742;52.048;6.092;2022-07-05T01:42:50;0.73;;;0.40;;
55811;SDS011;41742;52.048;6.092;2022-07-05T01:45:16;0.40;;;0.40;;
55811;SDS011;41742;52.048;6.092;2022-07-05T01:48:02;1.17;;;0.30;;
55811;SDS011;41742;52.048;6.092;2022-07-05T01:50:33;1.70;;;0.40;;
55811;SDS011;41742;52.048;6.092;2022-07-05T01:53:02;0.55;;;0.50;;
55811;SDS011;41742;52.048;6.092;2022-07-05T01:55:29;1.27;;;0.50;;
55811;SDS011;41742;52.048;6.092;2022-07-05T01:57:55;2.75;;;0.50;;
55811;SDS011;41742;52.048;6.092;2022-07-05T02:00:20;0.30;;;0.30;;
55811;SDS011;41742;52.048;6.092;2022-07-05T02:02:46;1.40;;;0.40;;
55811;SDS011;41742;52.048;6.092;2022-07-05T02:05:12;0.30;;;0.30;;
55811;SDS011;41742;52.048;6.092;2022-07-05T02:07:49;0.50;;;0.50;;
55811;SDS011;41742;52.048;6.092;2022-07-05T02:10:15;2.13;;;0.57;;
55811;SDS011;41742;52.048;6.092;2022-07-05T02:12:41;1.45;;;0.75;;
55811;SDS011;41742;52.048;6.092;2022-07-05T02:15:07;0.77;;;0.60;;
55811;SDS011;41742;52.048;6.092;2022-07-05T02:17:34;0.52;;;0.40;;
55811;SDS011;41742;52.048;6.092;2022-07-05T02:19:59;0.90;;;0.50;;
55811;SDS011;41742;52.048;6.092;2022-07-05T02:22:26;0.65;;;0.47;;
55811;SDS011;41742;52.048;6.092;2022-07-05T02:24:51;1.38;;;0.50;;
55811;SDS011;41742;52.048;6.092;2022-07-05T02:27:21;4.28;;;0.52;;
55811;SDS011;41742;52.048;6.092;2022-07-05T02:29:48;0.88;;;0.50;;
55811;SDS011;41742;52.048;6.092;2022-07-05T02:32:17;6.22;;;0.80;;
55811;SDS011;41742;52.048;6.092;2022-07-05T02:34:43;5.47;;;0.70;;
55811;SDS011;41742;52.048;6.092;2022-07-05T02:37:10;1.15;;;0.47;;
55811;SDS011;41742;52.048;6.092;2022-07-05T02:39:36;2.05;;;0.57;;
55811;SDS011;41742;52.048;6.092;2022-07-05T02:42:03;0.77;;;0.45;;
55811;SDS011;41742;52.048;6.092;2022-07-05T02:44:29;1.17;;;0.50;;
55811;SDS011;41742;52.048;6.092;2022-07-05T02:46:56;0.28;;;0.28;;
55811;SDS011;41742;52.048;6.092;2022-07-05T02:49:24;1.20;;;0.40;;
55811;SDS011;41742;52.048;6.092;2022-07-05T02:51:49;1.08;;;0.40;;
55811;SDS011;41742;52.048;6.092;2022-07-05T02:54:15;0.82;;;0.63;;
55811;SDS011;41742;52.048;6.092;2022-07-05T02:56:42;0.40;;;0.40;;
55811;SDS011;41742;52.048;6.092;2022-07-05T02:59:10;0.63;;;0.40;;
55811;SDS011;41742;52.048;6.092;2022-07-05T03:01:37;0.45;;;0.40;;
55811;SDS011;41742;52.048;6.092;2022-07-05T03:04:07;0.73;;;0.47;;
55811;SDS011;41742;52.048;6.092;2022-07-05T03:06:35;1.05;;;0.47;;
55811;SDS011;41742;52.048;6.092;2022-07-05T03:09:01;0.63;;;0.20;;
55811;SDS011;41742;52.048;6.092;2022-07-05T03:11:27;1.15;;;0.57;;
55811;SDS011;41742;52.048;6.092;2022-07-05T03:13:55;2.00;;;0.40;;
55811;SDS011;41742;52.048;6.092;2022-07-05T03:16:21;0.85;;;0.40;;
55811;SDS011;41742;52.048;6.092;2022-07-05T03:18:51;1.15;;;0.47;;
55811;SDS011;41742;52.048;6.092;2022-07-05T03:21:17;0.17;;;0.17;;
55811;SDS011;41742;52.048;6.092;2022-07-05T03:23:43;2.95;;;0.50;;
55811;SDS011;41742;52.048;6.092;2022-07-05T03:26:08;0.30;;;0.30;;
55811;SDS011;41742;52.048;6.092;2022-07-05T03:28:35;0.43;;;0.43;;
55811;SDS011;41742;52.048;6.092;2022-07-05T03:31:00;1.23;;;0.55;;
55811;SDS011;41742;52.048;6.092;2022-07-05T03:33:26;1.25;;;0.60;;
55811;SDS011;41742;52.048;6.092;2022-07-05T03:35:53;0.73;;;0.68;;
55811;SDS011;41742;52.048;6.092;2022-07-05T03:38:19;1.33;;;0.45;;
55811;SDS011;41742;52.048;6.092;2022-07-05T03:40:44;1.33;;;0.40;;
55811;SDS011;41742;52.048;6.092;2022-07-05T03:43:10;1.23;;;0.57;;
55811;SDS011;41742;52.048;6.092;2022-07-05T03:45:37;1.75;;;0.57;;
55811;SDS011;41742;52.048;6.092;2022-07-05T03:48:04;0.35;;;0.35;;
55811;SDS011;41742;52.048;6.092;2022-07-05T03:50:31;0.88;;;0.50;;
55811;SDS011;41742;52.048;6.092;2022-07-05T03:52:57;0.95;;;0.50;;
55811;SDS011;41742;52.048;6.092;2022-07-05T03:55:22;0.85;;;0.50;;
55811;SDS011;41742;52.048;6.092;2022-07-05T03:57:49;0.75;;;0.45;;
55811;SDS011;41742;52.048;6.092;2022-07-05T04:00:16;4.97;;;0.52;;
55811;SDS011;41742;52.048;6.092;2022-07-05T04:02:50;2.25;;;0.60;;
55811;SDS011;41742;52.048;6.092;2022-07-05T04:05:16;2.30;;;0.95;;
55811;SDS011;41742;52.048;6.092;2022-07-05T04:07:46;2.45;;;0.75;;
55811;SDS011;41742;52.048;6.092;2022-07-05T04:10:17;1.50;;;0.70;;
55811;SDS011;41742;52.048;6.092;2022-07-05T04:12:44;0.50;;;0.45;;
55811;SDS011;41742;52.048;6.092;2022-07-05T04:15:11;1.77;;;0.55;;
55811;SDS011;41742;52.048;6.092;2022-07-05T04:17:51;0.85;;;0.63;;
55811;SDS011;41742;52.048;6.092;2022-07-05T04:20:19;4.38;;;0.40;;
55811;SDS011;41742;52.048;6.092;2022-07-05T04:22:46;0.93;;;0.63;;
55811;SDS011;41742;52.048;6.092;2022-07-05T04:25:14;0.43;;;0.43;;
55811;SDS011;41742;52.048;6.092;2022-07-05T04:27:51;0.50;;;0.30;;
55811;SDS011;41742;52.048;6.092;2022-07-05T04:30:22;0.32;;;0.32;;
55811;SDS011;41742;52.048;6.092;2022-07-05T04:32:51;0.25;;;0.25;;
55811;SDS011;41742;52.048;6.092;2022-07-05T04:35:16;0.20;;;0.20;;
55811;SDS011;41742;52.048;6.092;2022-07-05T04:37:44;0.45;;;0.38;;
55811;SDS011;41742;52.048;6.092;2022-07-05T04:40:11;0.50;;;0.40;;
55811;SDS011;41742;52.048;6.092;2022-07-05T04:42:39;0.65;;;0.40;;
55811;SDS011;41742;52.048;6.092;2022-07-05T04:45:08;1.10;;;0.50;;
55811;SDS011;41742;52.048;6.092;2022-07-05T04:47:34;1.38;;;0.25;;
55811;SDS011;41742;52.048;6.092;2022-07-05T04:50:01;1.65;;;0.38;;
55811;SDS011;41742;52.048;6.092;2022-07-05T04:52:28;0.70;;;0.47;;
55811;SDS011;41742;52.048;6.092;2022-07-05T04:54:54;1.13;;;0.30;;
55811;SDS011;41742;52.048;6.092;2022-07-05T04:57:19;3.70;;;0.60;;
55811;SDS011;41742;52.048;6.092;2022-07-05T04:59:45;2.90;;;0.85;;
55811;SDS011;41742;52.048;6.092;2022-07-05T05:02:11;2.38;;;1.20;;
55811;SDS011;41742;52.048;6.092;2022-07-05T05:04:36;1.35;;;1.15;;
55811;SDS011;41742;52.048;6.092;2022-07-05T05:07:02;0.50;;;0.50;;
55811;SDS011;41742;52.048;6.092;2022-07-05T05:09:28;5.15;;;0.40;;
55811;SDS011;41742;52.048;6.092;2022-07-05T05:11:54;1.20;;;0.45;;
55811;SDS011;41742;52.048;6.092;2022-07-05T05:14:19;1.58;;;0.50;;
55811;SDS011;41742;52.048;6.092;2022-07-05T05:16:45;3.08;;;1.05;;
55811;SDS011;41742;52.048;6.092;2022-07-05T05:19:11;5.47;;;1.00;;
55811;SDS011;41742;52.048;6.092;2022-07-05T05:21:36;1.65;;;1.15;;
55811;SDS011;41742;52.048;6.092;2022-07-05T05:24:02;2.63;;;1.30;;
55811;SDS011;41742;52.048;6.092;2022-07-05T05:26:28;2.08;;;1.30;;
55811;SDS011;41742;52.048;6.092;2022-07-05T05:28:54;3.22;;;1.20;;
55811;SDS011;41742;52.048;6.092;2022-07-05T05:31:19;4.63;;;0.85;;
55811;SDS011;41742;52.048;6.092;2022-07-05T05:33:45;2.88;;;1.13;;
55811;SDS011;41742;52.048;6.092;2022-07-05T05:36:11;3.00;;;1.50;;
55811;SDS011;41742;52.048;6.092;2022-07-05T05:38:36;3.17;;;1.25;;
55811;SDS011;41742;52.048;6.092;2022-07-05T05:41:02;1.58;;;1.05;;
55811;SDS011;41742;52.048;6.092;2022-07-05T05:43:28;2.22;;;1.27;;
55811;SDS011;41742;52.048;6.092;2022-07-05T05:45:54;2.72;;;1.30;;
55811;SDS011;41742;52.048;6.092;2022-07-05T05:48:20;5.85;;;1.50;;
55811;SDS011;41742;52.048;6.092;2022-07-05T05:50:46;2.22;;;1.05;;
55811;SDS011;41742;52.048;6.092;2022-07-05T05:53:12;4.20;;;1.10;;
55811;SDS011;41742;52.048;6.092;2022-07-05T05:55:38;2.03;;;0.95;;
55811;SDS011;41742;52.048;6.092;2022-07-05T05:58:10;1.67;;;1.05;;
55811;SDS011;41742;52.048;6.092;2022-07-05T06:00:40;3.15;;;1.20;;
55811;SDS011;41742;52.048;6.092;2022-07-05T06:03:06;3.33;;;0.90;;
55811;SDS011;41742;52.048;6.092;2022-07-05T06:05:32;1.42;;;0.98;;
55811;SDS011;41742;52.048;6.092;2022-07-05T06:07:58;1.25;;;1.08;;
55811;SDS011;41742;52.048;6.092;2022-07-05T06:10:25;3.80;;;1.38;;
55811;SDS011;41742;52.048;6.092;2022-07-05T06:12:56;2.30;;;1.13;;
55811;SDS011;41742;52.048;6.092;2022-07-05T06:15:23;2.17;;;1.00;;
55811;SDS011;41742;52.048;6.092;2022-07-05T06:17:49;6.70;;;1.60;;
55811;SDS011;41742;52.048;6.092;2022-07-05T06:20:16;1.27;;;1.13;;
55811;SDS011;41742;52.048;6.092;2022-07-05T06:22:44;5.22;;;1.17;;
55811;SDS011;41742;52.048;6.092;2022-07-05T06:25:11;5.50;;;1.15;;
55811;SDS011;41742;52.048;6.092;2022-07-05T06:27:40;1.95;;;1.10;;
55811;SDS011;41742;52.048;6.092;2022-07-05T06:30:07;4.35;;;1.27;;
55811;SDS011;41742;52.048;6.092;2022-07-05T06:32:33;1.15;;;1.05;;
55811;SDS011;41742;52.048;6.092;2022-07-05T06:34:59;1.10;;;1.00;;
55811;SDS011;41742;52.048;6.092;2022-07-05T06:37:25;7.13;;;1.30;;
55811;SDS011;41742;52.048;6.092;2022-07-05T06:39:50;0.93;;;0.73;;
55811;SDS011;41742;52.048;6.092;2022-07-05T06:42:16;1.85;;;0.90;;
55811;SDS011;41742;52.048;6.092;2022-07-05T06:44:42;2.20;;;1.00;;
55811;SDS011;41742;52.048;6.092;2022-07-05T06:47:08;9.93;;;1.75;;
55811;SDS011;41742;52.048;6.092;2022-07-05T06:49:34;1.27;;;0.85;;
55811;SDS011;41742;52.048;6.092;2022-07-05T06:52:00;1.90;;;1.23;;
55811;SDS011;41742;52.048;6.092;2022-07-05T06:54:26;0.82;;;0.68;;
55811;SDS011;41742;52.048;6.092;2022-07-05T06:56:51;1.70;;;1.10;;
55811;SDS011;41742;52.048;6.092;2022-07-05T06:59:20;2.85;;;1.35;;
55811;SDS011;41742;52.048;6.092;2022-07-05T07:01:46;1.63;;;0.90;;
55811;SDS011;41742;52.048;6.092;2022-07-05T07:04:12;3.50;;;1.05;;
55811;SDS011;41742;52.048;6.092;2022-07-05T07:06:38;1.65;;;0.93;;
55811;SDS011;41742;52.048;6.092;2022-07-05T07:09:03;1.70;;;1.10;;
55811;SDS011;41742;52.048;6.092;2022-07-05T07:11:45;0.75;;;0.70;;
55811;SDS011;41742;52.048;6.092;2022-07-05T07:14:11;2.58;;;0.82;;
55811;SDS011;41742;52.048;6.092;2022-07-05T07:16:37;1.83;;;0.90;;
55811;SDS011;41742;52.048;6.092;2022-07-05T07:19:03;3.08;;;1.25;;
55811;SDS011;41742;52.048;6.092;2022-07-05T07:21:29;2.08;;;0.75;;
55811;SDS011;41742;52.048;6.092;2022-07-05T07:23:54;3.25;;;0.73;;
55811;SDS011;41742;52.048;6.092;2022-07-05T07:26:20;2.00;;;1.17;;
55811;SDS011;41742;52.048;6.092;2022-07-05T07:28:46;0.88;;;0.60;;
55811;SDS011;41742;52.048;6.092;2022-07-05T07:31:11;1.58;;;0.80;;
55811;SDS011;41742;52.048;6.092;2022-07-05T07:33:37;1.55;;;0.80;;
55811;SDS011;41742;52.048;6.092;2022-07-05T07:36:02;3.53;;;0.70;;
55811;SDS011;41742;52.048;6.092;2022-07-05T07:38:28;1.10;;;0.73;;
55811;SDS011;41742;52.048;6.092;2022-07-05T07:40:54;0.85;;;0.70;;
55811;SDS011;41742;52.048;6.092;2022-07-05T07:43:21;2.35;;;0.90;;
55811;SDS011;41742;52.048;6.092;2022-07-05T07:45:46;2.40;;;1.00;;
55811;SDS011;41742;52.048;6.092;2022-07-05T07:48:13;0.63;;;0.60;;
55811;SDS011;41742;52.048;6.092;2022-07-05T07:50:39;2.35;;;1.02;;
55811;SDS011;41742;52.048;6.092;2022-07-05T07:53:05;1.75;;;0.80;;
55811;SDS011;41742;52.048;6.092;2022-07-05T07:55:30;2.20;;;0.57;;
55811;SDS011;41742;52.048;6.092;2022-07-05T07:57:56;0.77;;;0.57;;
55811;SDS011;41742;52.048;6.092;2022-07-05T08:00:21;1.88;;;0.75;;
55811;SDS011;41742;52.048;6.092;2022-07-05T08:02:47;3.13;;;1.23;;
55811;SDS011;41742;52.048;6.092;2022-07-05T08:05:13;1.00;;;0.60;;
55811;SDS011;41742;52.048;6.092;2022-07-05T08:07:38;2.00;;;0.95;;
55811;SDS011;41742;52.048;6.092;2022-07-05T08:10:04;3.80;;;0.80;;
55811;SDS011;41742;52.048;6.092;2022-07-05T08:12:31;1.55;;;0.60;;
55811;SDS011;41742;52.048;6.092;2022-07-05T08:14:56;0.70;;;0.70;;
55811;SDS011;41742;52.048;6.092;2022-07-05T08:17:22;1.27;;;0.80;;
55811;SDS011;41742;52.048;6.092;2022-07-05T08:19:48;1.05;;;0.63;;
55811;SDS011;41742;52.048;6.092;2022-07-05T08:22:32;3.72;;;1.02;;
55811;SDS011;41742;52.048;6.092;2022-07-05T08:24:58;0.60;;;0.52;;
55811;SDS011;41742;52.048;6.092;2022-07-05T08:27:24;0.75;;;0.65;;
55811;SDS011;41742;52.048;6.092;2022-07-05T08:29:50;0.93;;;0.57;;
55811;SDS011;41742;52.048;6.092;2022-07-05T08:32:16;0.70;;;0.57;;
55811;SDS011;41742;52.048;6.092;2022-07-05T08:34:42;2.10;;;1.02;;
55811;SDS011;41742;52.048;6.092;2022-07-05T08:37:08;3.25;;;0.70;;
55811;SDS011;41742;52.048;6.092;2022-07-05T08:39:34;4.72;;;0.98;;
55811;SDS011;41742;52.048;6.092;2022-07-05T08:42:00;2.40;;;0.70;;
55811;SDS011;41742;52.048;6.092;2022-07-05T08:44:28;0.80;;;0.68;;
55811;SDS011;41742;52.048;6.092;2022-07-05T08:46:55;0.43;;;0.40;;
55811;SDS011;41742;52.048;6.092;2022-07-05T08:49:23;2.22;;;0.98;;
55811;SDS011;41742;52.048;6.092;2022-07-05T08:51:52;1.25;;;0.60;;
55811;SDS011;41742;52.048;6.092;2022-07-05T08:54:20;0.50;;;0.50;;
55811;SDS011;41742;52.048;6.092;2022-07-05T08:56:48;1.85;;;0.70;;
55811;SDS011;41742;52.048;6.092;2022-07-05T08:59:15;1.38;;;0.60;;
55811;SDS011;41742;52.048;6.092;2022-07-05T09:01:40;5.28;;;0.73;;
55811;SDS011;41742;52.048;6.092;2022-07-05T09:04:09;0.43;;;0.40;;
55811;SDS011;41742;52.048;6.092;2022-07-05T09:06:38;1.73;;;0.57;;
55811;SDS011;41742;52.048;6.092;2022-07-05T09:09:05;0.70;;;0.70;;
55811;SDS011;41742;52.048;6.092;2022-07-05T09:11:38;1.60;;;0.75;;
55811;SDS011;41742;52.048;6.092;2022-07-05T09:14:05;2.75;;;0.50;;
55811;SDS011;41742;52.048;6.092;2022-07-05T09:16:52;3.13;;;0.70;;
55811;SDS011;41742;52.048;6.092;2022-07-05T09:19:17;4.88;;;1.63;;
55811;SDS011;41742;52.048;6.092;2022-07-05T09:21:43;1.13;;;0.77;;
55811;SDS011;41742;52.048;6.092;2022-07-05T09:24:11;6.63;;;0.55;;
55811;SDS011;41742;52.048;6.092;2022-07-05T09:29:26;2.05;;;0.63;;
55811;SDS011;41742;52.048;6.092;2022-07-05T09:31:52;1.23;;;0.60;;
55811;SDS011;41742;52.048;6.092;2022-07-05T09:34:18;1.23;;;0.70;;
55811;SDS011;41742;52.048;6.092;2022-07-05T09:37:01;5.35;;;0.60;;
55811;SDS011;41742;52.048;6.092;2022-07-05T09:42:08;2.72;;;0.50;;
55811;SDS011;41742;52.048;6.092;2022-07-05T09:44:37;0.63;;;0.50;;
55811;SDS011;41742;52.048;6.092;2022-07-05T09:47:11;1.85;;;0.80;;
55811;SDS011;41742;52.048;6.092;2022-07-05T09:49:42;5.97;;;1.10;;
55811;SDS011;41742;52.048;6.092;2022-07-05T09:52:09;6.47;;;1.13;;
55811;SDS011;41742;52.048;6.092;2022-07-05T09:54:35;1.75;;;0.80;;
55811;SDS011;41742;52.048;6.092;2022-07-05T09:57:01;2.60;;;0.88;;
55811;SDS011;41742;52.048;6.092;2022-07-05T09:59:27;0.80;;;0.80;;
55811;SDS011;41742;52.048;6.092;2022-07-05T10:01:53;1.75;;;0.73;;
55811;SDS011;41742;52.048;6.092;2022-07-05T10:04:19;1.17;;;0.85;;
55811;SDS011;41742;52.048;6.092;2022-07-05T10:06:45;2.90;;;0.88;;
55811;SDS011;41742;52.048;6.092;2022-07-05T10:09:11;1.67;;;0.50;;
55811;SDS011;41742;52.048;6.092;2022-07-05T10:11:43;1.15;;;0.70;;
55811;SDS011;41742;52.048;6.092;2022-07-05T10:14:11;2.25;;;0.82;;
55811;SDS011;41742;52.048;6.092;2022-07-05T10:16:41;8.20;;;1.00;;
55811;SDS011;41742;52.048;6.092;2022-07-05T10:19:27;1.63;;;0.55;;
55811;SDS011;41742;52.048;6.092;2022-07-05T10:21:57;3.05;;;1.20;;
55811;SDS011;41742;52.048;6.092;2022-07-05T10:24:24;2.70;;;1.23;;
55811;SDS011;41742;52.048;6.092;2022-07-05T10:26:50;2.15;;;1.13;;
55811;SDS011;41742;52.048;6.092;2022-07-05T10:29:16;4.32;;;1.05;;
55811;SDS011;41742;52.048;6.092;2022-07-05T10:31:43;6.80;;;1.00;;
55811;SDS011;41742;52.048;6.092;2022-07-05T10:34:09;5.28;;;1.20;;
55811;SDS011;41742;52.048;6.092;2022-07-05T10:36:35;1.30;;;1.20;;
55811;SDS011;41742;52.048;6.092;2022-07-05T10:39:02;1.70;;;1.05;;
55811;SDS011;41742;52.048;6.092;2022-07-05T10:41:28;4.00;;;1.20;;
55811;SDS011;41742;52.048;6.092;2022-07-05T10:43:56;2.10;;;1.10;;
55811;SDS011;41742;52.048;6.092;2022-07-05T10:46:34;2.15;;;1.13;;
55811;SDS011;41742;52.048;6.092;2022-07-05T10:49:11;1.65;;;0.90;;
55811;SDS011;41742;52.048;6.092;2022-07-05T10:51:41;1.73;;;1.20;;
55811;SDS011;41742;52.048;6.092;2022-07-05T10:54:07;1.30;;;1.00;;
55811;SDS011;41742;52.048;6.092;2022-07-05T10:56:33;2.53;;;1.15;;
55811;SDS011;41742;52.048;6.092;2022-07-05T10:59:08;5.13;;;1.52;;
55811;SDS011;41742;52.048;6.092;2022-07-05T11:01:39;0.98;;;0.80;;
55811;SDS011;41742;52.048;6.092;2022-07-05T11:06:43;2.13;;;1.17;;
55811;SDS011;41742;52.048;6.092;2022-07-05T11:14:05;7.65;;;0.95;;
55811;SDS011;41742;52.048;6.092;2022-07-05T11:19:34;1.50;;;0.70;;
55811;SDS011;41742;52.048;6.092;2022-07-05T11:22:20;2.05;;;0.60;;
55811;SDS011;41742;52.048;6.092;2022-07-05T11:24:46;2.25;;;0.55;;
55811;SDS011;41742;52.048;6.092;2022-07-05T11:27:12;1.40;;;0.70;;
55811;SDS011;41742;52.048;6.092;2022-07-05T11:29:45;0.95;;;0.50;;
55811;SDS011;41742;52.048;6.092;2022-07-05T11:34:45;5.13;;;0.70;;
55811;SDS011;41742;52.048;6.092;2022-07-05T11:42:57;5.28;;;0.70;;
55811;SDS011;41742;52.048;6.092;2022-07-05T11:45:22;1.23;;;0.77;;
55811;SDS011;41742;52.048;6.092;2022-07-05T11:47:49;1.13;;;0.77;;
55811;SDS011;41742;52.048;6.092;2022-07-05T11:50:24;1.38;;;0.80;;
55811;SDS011;41742;52.048;6.092;2022-07-05T11:52:51;1.48;;;0.52;;
55811;SDS011;41742;52.048;6.092;2022-07-05T11:55:17;2.08;;;0.60;;
55811;SDS011;41742;52.048;6.092;2022-07-05T11:57:50;1.08;;;0.73;;
55811;SDS011;41742;52.048;6.092;2022-07-05T12:00:30;0.32;;;0.25;;
55811;SDS011;41742;52.048;6.092;2022-07-05T12:03:12;1.50;;;0.60;;
55811;SDS011;41742;52.048;6.092;2022-07-05T12:05:39;1.10;;;0.55;;
55811;SDS011;41742;52.048;6.092;2022-07-05T12:08:05;1.48;;;0.25;;
55811;SDS011;41742;52.048;6.092;2022-07-05T12:10:31;1.85;;;0.60;;
55811;SDS011;41742;52.048;6.092;2022-07-05T12:13:15;1.17;;;0.55;;
55811;SDS011;41742;52.048;6.092;2022-07-05T12:15:41;1.38;;;0.40;;
55811;SDS011;41742;52.048;6.092;2022-07-05T12:18:07;0.82;;;0.45;;
55811;SDS011;41742;52.048;6.092;2022-07-05T12:20:37;0.95;;;0.30;;
55811;SDS011;41742;52.048;6.092;2022-07-05T12:23:04;5.93;;;0.30;;
55811;SDS011;41742;52.048;6.092;2022-07-05T12:25:31;0.40;;;0.40;;
55811;SDS011;41742;52.048;6.092;2022-07-05T12:27:58;1.20;;;0.55;;
55811;SDS011;41742;52.048;6.092;2022-07-05T12:30:29;0.70;;;0.40;;
55811;SDS011;41742;52.048;6.092;2022-07-05T12:35:26;0.22;;;0.22;;
55811;SDS011;41742;52.048;6.092;2022-07-05T12:37:53;1.38;;;0.57;;
55811;SDS011;41742;52.048;6.092;2022-07-05T12:40:20;1.55;;;0.63;;
55811;SDS011;41742;52.048;6.092;2022-07-05T12:42:47;1.20;;;0.40;;
55811;SDS011;41742;52.048;6.092;2022-07-05T12:45:28;1.35;;;0.60;;
55811;SDS011;41742;52.048;6.092;2022-07-05T12:47:55;1.42;;;0.80;;
55811;SDS011;41742;52.048;6.092;2022-07-05T12:50:25;0.82;;;0.40;;
55811;SDS011;41742;52.048;6.092;2022-07-05T12:53:09;1.10;;;0.52;;
55811;SDS011;41742;52.048;6.092;2022-07-05T12:56:03;0.30;;;0.28;;
55811;SDS011;41742;52.048;6.092;2022-07-05T13:01:18;2.30;;;0.57;;
55811;SDS011;41742;52.048;6.092;2022-07-05T13:03:57;4.75;;;0.50;;
55811;SDS011;41742;52.048;6.092;2022-07-05T13:17:07;1.83;;;0.50;;
55811;SDS011;41742;52.048;6.092;2022-07-05T13:19:34;1.65;;;0.35;;
55811;SDS011;41742;52.048;6.092;2022-07-05T13:22:00;1.25;;;0.60;;
55811;SDS011;41742;52.048;6.092;2022-07-05T13:24:26;2.45;;;0.68;;
55811;SDS011;41742;52.048;6.092;2022-07-05T13:26:51;1.80;;;0.60;;
55811;SDS011;41742;52.048;6.092;2022-07-05T13:29:17;5.55;;;0.57;;
55811;SDS011;41742;52.048;6.092;2022-07-05T13:31:43;0.77;;;0.40;;
55811;SDS011;41742;52.048;6.092;2022-07-05T13:34:08;3.92;;;0.50;;
55811;SDS011;41742;52.048;6.092;2022-07-05T13:36:34;4.25;;;0.70;;
55811;SDS011;41742;52.048;6.092;2022-07-05T13:38:59;1.45;;;0.40;;
55811;SDS011;41742;52.048;6.092;2022-07-05T13:41:25;2.85;;;0.70;;
55811;SDS011;41742;52.048;6.092;2022-07-05T13:43:51;3.47;;;0.80;;
55811;SDS011;41742;52.048;6.092;2022-07-05T13:46:17;0.35;;;0.30;;
55811;SDS011;41742;52.048;6.092;2022-07-05T13:48:42;2.65;;;0.70;;
55811;SDS011;41742;52.048;6.092;2022-07-05T13:51:08;0.40;;;0.30;;
55811;SDS011;41742;52.048;6.092;2022-07-05T13:53:33;1.35;;;0.50;;
55811;SDS011;41742;52.048;6.092;2022-07-05T13:56:01;0.93;;;0.38;;
55811;SDS011;41742;52.048;6.092;2022-07-05T13:58:31;5.35;;;0.65;;
55811;SDS011;41742;52.048;6.092;2022-07-05T14:00:57;0.85;;;0.50;;
55811;SDS011;41742;52.048;6.092;2022-07-05T14:03:23;2.25;;;0.70;;
55811;SDS011;41742;52.048;6.092;2022-07-05T14:05:49;0.30;;;0.30;;
55811;SDS011;41742;52.048;6.092;2022-07-05T14:08:15;1.77;;;0.50;;
55811;SDS011;41742;52.048;6.092;2022-07-05T14:10:46;1.75;;;0.43;;
55811;SDS011;41742;52.048;6.092;2022-07-05T14:13:16;1.80;;;0.65;;
55811;SDS011;41742;52.048;6.092;2022-07-05T14:15:46;2.40;;;0.40;;
55811;SDS011;41742;52.048;6.092;2022-07-05T14:18:16;3.75;;;0.30;;
55811;SDS011;41742;52.048;6.092;2022-07-05T14:20:44;1.15;;;0.40;;
55811;SDS011;41742;52.048;6.092;2022-07-05T14:23:10;2.05;;;0.38;;
55811;SDS011;41742;52.048;6.092;2022-07-05T14:25:37;2.08;;;0.45;;
55811;SDS011;41742;52.048;6.092;2022-07-05T14:28:03;1.95;;;0.40;;
55811;SDS011;41742;52.048;6.092;2022-07-05T14:30:36;1.00;;;0.50;;
55811;SDS011;41742;52.048;6.092;2022-07-05T14:33:04;2.63;;;0.80;;
55811;SDS011;41742;52.048;6.092;2022-07-05T14:35:31;0.70;;;0.50;;
55811;SDS011;41742;52.048;6.092;2022-07-05T14:37:58;0.98;;;0.43;;
55811;SDS011;41742;52.048;6.092;2022-07-05T14:40:24;7.38;;;0.63;;
55811;SDS011;41742;52.048;6.092;2022-07-05T14:42:50;0.20;;;0.20;;
55811;SDS011;41742;52.048;6.092;2022-07-05T14:45:19;2.55;;;0.50;;
55811;SDS011;41742;52.048;6.092;2022-07-05T14:47:45;2.28;;;0.50;;
55811;SDS011;41742;52.048;6.092;2022-07-05T14:50:11;1.40;;;0.40;;
55811;SDS011;41742;52.048;6.092;2022-07-05T14:52:38;0.50;;;0.38;;
55811;SDS011;41742;52.048;6.092;2022-07-05T14:55:03;0.50;;;0.40;;
55811;SDS011;41742;52.048;6.092;2022-07-05T14:57:29;2.35;;;0.55;;
55811;SDS011;41742;52.048;6.092;2022-07-05T14:59:55;0.40;;;0.20;;
55811;SDS011;41742;52.048;6.092;2022-07-05T15:02:21;2.03;;;0.68;;
55811;SDS011;41742;52.048;6.092;2022-07-05T15:04:46;1.40;;;0.40;;
55811;SDS011;41742;52.048;6.092;2022-07-05T15:07:12;2.30;;;0.60;;
55811;SDS011;41742;52.048;6.092;2022-07-05T15:09:37;1.38;;;0.50;;
55811;SDS011;41742;52.048;6.092;2022-07-05T15:12:03;0.43;;;0.20;;
55811;SDS011;41742;52.048;6.092;2022-07-05T15:14:29;0.50;;;0.20;;
55811;SDS011;41742;52.048;6.092;2022-07-05T15:16:55;0.40;;;0.30;;
55811;SDS011;41742;52.048;6.092;2022-07-05T15:19:21;4.88;;;0.40;;
55811;SDS011;41742;52.048;6.092;2022-07-05T15:21:47;0.40;;;0.28;;
55811;SDS011;41742;52.048;6.092;2022-07-05T15:24:13;1.90;;;0.22;;
55811;SDS011;41742;52.048;6.092;2022-07-05T15:26:39;4.13;;;0.50;;
55811;SDS011;41742;52.048;6.092;2022-07-05T15:29:06;1.27;;;0.40;;